createdAt,value
2023-02-11T00:02:48.184Z,29.10
2023-02-11T00:06:05.393Z,32.70
2023-02-11T00:09:14.294Z,30.00
2023-02-11T00:12:22.945Z,29.90
2023-02-11T00:15:31.137Z,33.50
2023-02-11T00:18:39.692Z,34.30
2023-02-11T00:21:47.768Z,28.30
2023-02-11T00:24:57.319Z,34.80
2023-02-11T00:28:05.608Z,31.30
2023-02-11T00:31:14.411Z,36.70
2023-02-11T00:34:22.610Z,34.20
2023-02-11T00:37:30.896Z,37.70
2023-02-11T00:40:39.271Z,43.60
2023-02-11T00:43:47.679Z,43.60
2023-02-11T00:46:55.792Z,42.60
2023-02-11T00:50:05.363Z,40.00
2023-02-11T00:53:14.082Z,42.20
2023-02-11T00:56:22.457Z,43.60
2023-02-11T00:59:30.517Z,40.40
2023-02-11T01:02:38.805Z,41.40
2023-02-11T01:05:46.761Z,42.00
2023-02-11T01:08:54.824Z,40.40
2023-02-11T01:12:03.033Z,37.80
2023-02-11T01:15:18.341Z,39.10
2023-02-11T01:18:26.945Z,35.00
2023-02-11T01:21:35.162Z,31.50
2023-02-11T01:24:43.191Z,36.80
2023-02-11T01:27:51.105Z,35.60
2023-02-11T01:31:01.250Z,41.30
2023-02-11T01:34:09.316Z,38.10
2023-02-11T01:37:18.666Z,39.00
2023-02-11T01:40:27.395Z,40.90
2023-02-11T01:43:38.885Z,44.70
2023-02-11T01:46:46.924Z,43.60
2023-02-11T01:50:03.055Z,44.40
2023-02-11T01:53:25.707Z,39.30
2023-02-11T01:56:54.635Z,42.20
2023-02-11T02:00:11.357Z,39.70
2023-02-11T02:03:23.878Z,43.60
2023-02-11T02:06:39.786Z,44.00
2023-02-11T02:09:54.323Z,37.70
2023-02-11T02:13:03.624Z,37.90
2023-02-11T02:16:16.663Z,33.90
2023-02-11T02:20:12.711Z,34.30
2023-02-11T02:24:08.673Z,35.80
2023-02-11T02:27:33.672Z,31.80
2023-02-11T02:31:29.725Z,34.90
2023-02-11T02:34:51.422Z,29.90
2023-02-11T02:38:08.201Z,32.80
2023-02-11T02:41:20.296Z,32.70
2023-02-11T02:44:29.472Z,32.90
2023-02-11T02:47:37.822Z,35.60
2023-02-11T02:50:46.509Z,31.80
2023-02-11T02:54:09.546Z,31.20
2023-02-11T02:57:34.910Z,31.20
2023-02-11T03:00:59.818Z,32.70
2023-02-11T03:04:19.596Z,31.50
2023-02-11T03:10:46.570Z,26.20
2023-02-11T03:13:55.948Z,31.50
2023-02-11T03:17:09.928Z,28.90
2023-02-11T03:20:23.422Z,30.10
2023-02-11T03:23:37.933Z,28.80
2023-02-11T03:26:53.321Z,30.80
2023-02-11T03:30:12.507Z,30.70
2023-02-11T03:33:27.927Z,32.10
2023-02-11T03:36:47.650Z,27.20
2023-02-11T03:43:17.336Z,26.10
2023-02-11T03:46:32.641Z,27.10
2023-02-11T03:49:44.077Z,27.70
2023-02-11T03:52:54.135Z,29.80
2023-02-11T03:56:06.697Z,29.10
2023-02-11T03:59:14.745Z,28.40
2023-02-11T04:02:23.679Z,25.20
2023-02-11T04:05:31.709Z,26.00
2023-02-11T04:08:39.878Z,31.60
2023-02-11T04:11:51.532Z,28.70
2023-02-11T04:14:59.833Z,28.70
2023-02-11T04:18:08.339Z,29.70
2023-02-11T04:21:16.464Z,27.40
2023-02-11T04:24:24.454Z,31.40
2023-02-11T04:27:32.730Z,32.00
2023-02-11T04:30:40.683Z,28.70
2023-02-11T04:33:48.564Z,26.90
2023-02-11T04:36:56.587Z,26.10
2023-02-11T04:40:05.423Z,30.60
2023-02-11T04:43:13.829Z,31.20
2023-02-11T04:46:21.799Z,32.20
2023-02-11T04:49:29.893Z,29.50
2023-02-11T04:52:38.023Z,30.50
2023-02-11T04:55:45.761Z,28.50
2023-02-11T04:58:53.706Z,34.20
2023-02-11T05:02:01.759Z,31.00
2023-02-11T05:05:10.874Z,30.60
2023-02-11T05:08:18.855Z,28.90
2023-02-11T05:11:28.453Z,29.30
2023-02-11T05:17:42.970Z,26.00
2023-02-11T05:20:50.885Z,28.80
2023-02-11T05:23:58.770Z,32.20
2023-02-11T05:27:06.848Z,28.40
2023-02-11T05:30:16.231Z,28.30
2023-02-11T05:33:24.711Z,27.50
2023-02-11T05:36:33.517Z,30.40
2023-02-11T05:39:41.683Z,31.10
2023-02-11T05:42:49.511Z,34.00
2023-02-11T05:45:58.284Z,30.00
2023-02-11T05:49:06.306Z,30.70
2023-02-11T05:52:14.221Z,29.80
2023-02-11T05:55:22.306Z,31.20
2023-02-11T05:58:30.735Z,30.80
2023-02-11T06:01:39.272Z,28.60
2023-02-11T06:04:47.437Z,27.90
2023-02-11T06:07:55.688Z,30.40
2023-02-11T06:11:03.865Z,30.90
2023-02-11T06:14:12.224Z,31.60
2023-02-11T06:17:20.241Z,27.90
2023-02-11T06:20:28.551Z,32.10
2023-02-11T06:23:37.038Z,40.00
2023-02-11T06:26:44.978Z,44.70
2023-02-11T06:29:53.650Z,44.80
2023-02-11T06:33:01.823Z,43.00
2023-02-11T06:36:19.717Z,35.40
2023-02-11T06:39:27.747Z,29.80
2023-02-11T06:42:38.810Z,27.70
2023-02-11T06:45:46.929Z,26.30
2023-02-11T06:48:54.826Z,26.80
2023-02-11T06:52:03.539Z,27.40
2023-02-11T06:55:12.304Z,27.80
2023-02-11T06:58:20.504Z,31.10
2023-02-11T07:01:30.431Z,34.20
2023-02-11T07:04:38.440Z,24.00
2023-02-11T07:07:46.432Z,34.40
2023-02-11T07:10:54.298Z,26.50
2023-02-11T07:14:08.462Z,31.80
2023-02-11T07:17:16.841Z,29.40
2023-02-11T07:20:25.600Z,30.40
2023-02-11T07:23:33.635Z,33.40
2023-02-11T07:26:42.220Z,28.90
2023-02-11T07:29:50.689Z,27.80
2023-02-11T07:32:59.438Z,28.50
2023-02-11T07:36:12.156Z,24.70
2023-02-11T07:39:22.182Z,27.50
2023-02-11T07:42:30.495Z,28.80
2023-02-11T07:45:41.882Z,27.20
2023-02-11T07:48:50.359Z,30.30
2023-02-11T07:51:58.641Z,31.20
2023-02-11T07:55:07.431Z,26.30
2023-02-11T07:58:15.802Z,27.80
2023-02-11T08:01:28.957Z,29.20
2023-02-11T08:04:37.228Z,29.70
2023-02-11T08:07:45.060Z,24.40
2023-02-11T08:10:53.428Z,26.30
2023-02-11T08:14:01.944Z,31.50
2023-02-11T08:17:09.933Z,28.90
2023-02-11T08:20:18.316Z,33.10
2023-02-11T08:23:26.603Z,33.80
2023-02-11T08:26:36.461Z,31.20
2023-02-11T08:29:44.469Z,35.90
2023-02-11T08:32:52.865Z,31.20
2023-02-11T08:36:01.994Z,31.40
2023-02-11T08:39:20.120Z,33.90
2023-02-11T08:42:28.625Z,32.90
2023-02-11T08:45:36.888Z,31.60
2023-02-11T08:48:45.461Z,32.70
2023-02-11T08:51:55.668Z,34.30
2023-02-11T08:55:03.795Z,33.60
2023-02-11T08:58:11.985Z,33.00
2023-02-11T09:01:23.258Z,36.60
2023-02-11T09:04:31.720Z,30.50
2023-02-11T09:07:40.215Z,31.40
2023-02-11T09:10:49.310Z,35.10
2023-02-11T09:13:58.284Z,32.00
2023-02-11T09:17:06.434Z,37.60
2023-02-11T09:20:19.856Z,34.30
2023-02-11T09:23:31.493Z,33.00
2023-02-11T09:26:43.939Z,32.80
2023-02-11T09:29:52.594Z,34.10
2023-02-11T09:33:00.687Z,34.40
2023-02-11T09:36:10.666Z,32.50
2023-02-11T09:39:23.799Z,37.30
2023-02-11T09:42:47.567Z,37.10
2023-02-11T09:45:58.535Z,35.20
2023-02-11T09:49:08.857Z,35.10
2023-02-11T09:52:37.259Z,37.20
2023-02-11T09:55:49.540Z,36.10
2023-02-11T09:58:57.880Z,37.80
2023-02-11T10:02:18.909Z,37.00
2023-02-11T10:05:45.813Z,40.70
2023-02-11T10:09:10.284Z,35.00
2023-02-11T10:12:34.042Z,36.20
2023-02-11T10:15:53.512Z,37.00
2023-02-11T10:19:24.464Z,36.10
2023-02-11T10:22:41.348Z,36.10
2023-02-11T10:25:54.756Z,38.90
2023-02-11T10:29:13.427Z,43.20
2023-02-11T10:32:36.614Z,36.90
2023-02-11T10:35:46.135Z,43.10
2023-02-11T10:38:54.446Z,36.10
2023-02-11T10:42:10.886Z,39.80
2023-02-11T10:45:37.716Z,35.50
2023-02-11T10:48:49.700Z,33.40
2023-02-11T10:52:21.819Z,33.50
2023-02-11T10:55:32.437Z,34.20
2023-02-11T10:58:48.225Z,32.90
2023-02-11T11:02:01.901Z,32.00
2023-02-11T11:05:19.881Z,41.00
2023-02-11T11:08:45.433Z,36.10
2023-02-11T11:11:58.449Z,32.90
2023-02-11T11:15:22.135Z,33.80
2023-02-11T11:18:30.487Z,43.10
2023-02-11T11:21:44.903Z,36.20
2023-02-11T11:24:55.369Z,33.70
2023-02-11T11:28:05.550Z,33.20
2023-02-11T11:31:24.412Z,46.00
2023-02-11T11:34:37.328Z,29.80
2023-02-11T11:37:47.117Z,31.60
2023-02-11T11:41:21.185Z,31.70
2023-02-11T11:44:33.503Z,36.50
2023-02-11T11:47:49.623Z,27.00
2023-02-11T11:51:01.520Z,26.50
2023-02-11T11:54:18.906Z,27.90
2023-02-11T11:57:31.460Z,32.50
2023-02-11T12:00:52.051Z,29.50
2023-02-11T12:04:40.186Z,26.90
2023-02-11T12:08:04.421Z,29.70
2023-02-11T12:11:24.302Z,27.80
2023-02-11T12:14:47.624Z,24.30
2023-02-11T12:18:27.222Z,25.80
2023-02-11T12:21:48.305Z,24.70
2023-02-11T12:25:21.728Z,20.70
2023-02-11T12:28:43.424Z,24.30
2023-02-11T12:32:08.262Z,23.10
2023-02-11T12:36:02.529Z,19.10
2023-02-11T12:39:27.698Z,20.90
2023-02-11T12:43:19.320Z,21.20
2023-02-11T12:46:51.661Z,20.00
2023-02-11T12:50:16.788Z,20.50
2023-02-11T12:53:50.223Z,21.00
2023-02-11T12:57:08.924Z,20.90
2023-02-11T13:00:24.992Z,20.60
2023-02-11T13:03:40.539Z,21.70
2023-02-11T13:06:57.322Z,19.00
2023-02-11T13:10:17.517Z,22.50
2023-02-11T13:13:31.252Z,22.30
2023-02-11T13:16:43.234Z,21.30
2023-02-11T13:20:01.020Z,22.80
2023-02-11T13:23:23.459Z,21.20
2023-02-11T13:26:40.927Z,22.90
2023-02-11T13:30:34.761Z,23.40
2023-02-11T13:33:46.081Z,21.20
2023-02-11T13:36:59.551Z,21.50
2023-02-11T13:40:24.529Z,24.80
2023-02-11T13:43:36.163Z,24.00
2023-02-11T13:46:59.761Z,25.00
2023-02-11T13:50:23.337Z,26.10
2023-02-11T13:53:44.835Z,25.80
2023-02-11T13:57:42.156Z,23.80
2023-02-11T14:00:53.231Z,23.50
2023-02-11T14:04:42.987Z,20.90
2023-02-11T14:08:41.422Z,25.60
2023-02-11T14:11:57.563Z,24.20
2023-02-11T14:15:47.752Z,23.40
2023-02-11T14:19:06.566Z,23.50
2023-02-11T14:22:23.918Z,24.00
2023-02-11T14:25:32.686Z,23.40
2023-02-11T14:28:44.912Z,24.30
2023-02-11T14:32:06.786Z,22.60
2023-02-11T14:35:22.739Z,26.20
2023-02-11T14:38:46.346Z,25.50
2023-02-11T14:41:55.720Z,26.20
2023-02-11T14:45:12.653Z,24.40
2023-02-11T14:48:23.960Z,24.70
2023-02-11T14:51:36.630Z,24.70
2023-02-11T14:54:49.907Z,24.30
2023-02-11T14:58:16.730Z,24.40
2023-02-11T15:01:36.688Z,23.50
2023-02-11T15:07:57.345Z,30.70
2023-02-11T15:11:13.172Z,25.70
2023-02-11T15:14:34.563Z,25.50
2023-02-11T15:17:43.509Z,26.80
2023-02-11T15:20:53.319Z,26.30
2023-02-11T15:24:06.522Z,25.00
2023-02-11T15:27:18.606Z,26.80
2023-02-11T15:30:35.126Z,27.10
2023-02-11T15:33:43.300Z,25.50
2023-02-11T15:36:51.370Z,26.70
2023-02-11T15:40:13.043Z,28.70
2023-02-11T15:43:21.256Z,27.90
2023-02-11T15:46:41.247Z,27.10
2023-02-11T15:49:51.709Z,27.30
2023-02-11T15:53:13.437Z,24.30
2023-02-11T15:56:26.878Z,26.10
2023-02-11T15:59:41.669Z,25.00
2023-02-11T16:02:51.313Z,25.30
2023-02-11T16:06:15.991Z,24.40
2023-02-11T16:09:37.274Z,25.80
2023-02-11T16:12:54.497Z,24.90
2023-02-11T16:16:06.365Z,24.10
2023-02-11T16:19:25.350Z,23.10
2023-02-11T16:22:38.323Z,24.60
2023-02-11T16:25:46.849Z,26.40
2023-02-11T16:28:55.341Z,24.60
2023-02-11T16:32:17.911Z,24.30
2023-02-11T16:35:26.087Z,29.20
2023-02-11T16:38:35.152Z,33.30
2023-02-11T16:41:43.568Z,40.40
2023-02-11T16:44:52.411Z,34.60
2023-02-11T16:48:02.470Z,41.30
2023-02-11T16:51:13.864Z,39.00
2023-02-11T16:54:22.561Z,42.80
2023-02-11T16:57:31.173Z,33.50
2023-02-11T17:00:39.228Z,29.20
2023-02-11T17:03:50.241Z,27.60
2023-02-11T17:06:58.827Z,29.80
2023-02-11T17:10:07.769Z,27.90
2023-02-11T17:13:15.923Z,25.70
2023-02-11T17:16:27.892Z,24.70
2023-02-11T17:19:35.941Z,27.10
2023-02-11T17:22:44.120Z,22.70
2023-02-11T17:26:00.064Z,26.00
2023-02-11T17:29:10.966Z,24.70
2023-02-11T17:32:19.274Z,30.20
2023-02-11T17:35:27.570Z,44.00
2023-02-11T17:38:35.519Z,34.40
2023-02-11T17:41:44.156Z,28.00
2023-02-11T17:44:52.194Z,29.30
2023-02-11T17:48:00.127Z,29.60
2023-02-11T17:51:22.205Z,27.70
2023-02-11T17:54:30.506Z,25.70
2023-02-11T17:57:38.364Z,27.80
2023-02-11T18:00:47.155Z,28.60
2023-02-11T18:03:54.926Z,29.10
2023-02-11T18:07:03.300Z,29.40
2023-02-11T18:10:14.204Z,28.40
2023-02-11T18:13:22.685Z,28.50
2023-02-11T18:16:31.438Z,31.40
2023-02-11T18:19:39.548Z,31.60
2023-02-11T18:22:47.491Z,33.40
2023-02-11T18:25:55.648Z,32.40
2023-02-11T18:29:04.458Z,26.60
2023-02-11T18:32:12.571Z,24.50
2023-02-11T18:35:21.715Z,27.60
2023-02-11T18:38:29.784Z,30.50
2023-02-11T18:41:40.399Z,25.70
2023-02-11T18:44:48.716Z,26.30
2023-02-11T18:47:56.667Z,26.40
2023-02-11T18:51:09.409Z,27.80
2023-02-11T18:54:17.690Z,26.80
2023-02-11T18:57:26.174Z,21.60
2023-02-11T19:00:35.918Z,19.60
2023-02-11T19:03:44.168Z,23.90
2023-02-11T19:06:53.579Z,25.60
2023-02-11T19:10:01.877Z,22.90
2023-02-11T19:13:10.357Z,25.30
2023-02-11T19:16:19.893Z,24.80
2023-02-11T19:19:31.212Z,23.10
2023-02-11T19:22:39.266Z,24.00
2023-02-11T19:25:52.908Z,24.70
2023-02-11T19:29:03.143Z,22.00
2023-02-11T19:32:11.696Z,16.00
2023-02-11T19:35:19.872Z,16.90
2023-02-11T19:38:28.417Z,21.40
2023-02-11T19:41:37.835Z,20.00
2023-02-11T19:44:47.278Z,22.60
2023-02-11T19:48:00.249Z,18.60
2023-02-11T19:51:14.227Z,19.00
2023-02-11T19:54:23.259Z,21.30
2023-02-11T19:57:31.484Z,19.10
2023-02-11T20:00:39.551Z,20.10
2023-02-11T20:03:50.095Z,23.20
2023-02-11T20:06:58.223Z,25.00
2023-02-11T20:10:07.504Z,23.40
2023-02-11T20:13:15.707Z,22.80
2023-02-11T20:16:44.581Z,23.80
2023-02-11T20:19:55.372Z,17.00
2023-02-11T20:23:03.596Z,22.80
2023-02-11T20:26:15.656Z,21.40
2023-02-11T20:29:24.897Z,23.40
2023-02-11T20:32:38.081Z,22.40
2023-02-11T20:35:46.392Z,19.70
2023-02-11T20:38:55.335Z,21.50
2023-02-11T20:42:03.477Z,23.10
2023-02-11T20:45:12.349Z,12.30
2023-02-11T20:48:20.204Z,22.00
2023-02-11T20:51:31.673Z,21.30
2023-02-11T20:54:39.786Z,20.50
2023-02-11T20:57:47.871Z,18.70
2023-02-11T21:00:55.872Z,19.20
2023-02-11T21:04:06.746Z,18.50
2023-02-11T21:07:14.936Z,22.90
2023-02-11T21:10:23.609Z,22.70
2023-02-11T21:13:32.097Z,21.30
2023-02-11T21:16:40.209Z,26.40
2023-02-11T21:19:48.342Z,24.60
2023-02-11T21:22:56.224Z,26.50
2023-02-11T21:26:04.393Z,27.10
2023-02-11T21:29:13.337Z,25.10
2023-02-11T21:32:21.283Z,26.00
2023-02-11T21:35:29.601Z,27.40
2023-02-11T21:38:37.453Z,22.30
2023-02-11T21:41:45.524Z,20.90
2023-02-11T21:44:53.515Z,21.80
2023-02-11T21:48:02.183Z,24.20
2023-02-11T21:51:14.281Z,23.80
2023-02-11T21:54:24.264Z,20.50
2023-02-11T21:57:32.592Z,18.80
2023-02-11T22:00:41.438Z,19.20
2023-02-11T22:03:50.311Z,20.20
2023-02-11T22:06:58.505Z,21.50
2023-02-11T22:10:07.690Z,19.70
2023-02-11T22:13:16.137Z,19.70
2023-02-11T22:16:24.198Z,18.80
2023-02-11T22:19:34.259Z,18.20
2023-02-11T22:22:42.150Z,17.40
2023-02-11T22:25:50.053Z,20.10
2023-02-11T22:28:59.105Z,15.00
2023-02-11T22:32:07.557Z,19.70
2023-02-11T22:35:15.881Z,19.30
2023-02-11T22:38:24.084Z,19.90
2023-02-11T22:41:32.351Z,20.40
2023-02-11T22:44:40.115Z,22.60
2023-02-11T22:47:48.001Z,17.00
2023-02-11T22:51:00.920Z,22.00
2023-02-11T22:54:13.672Z,19.00
2023-02-11T22:57:21.477Z,14.00
2023-02-11T23:00:37.467Z,19.30
2023-02-11T23:03:45.964Z,18.40
2023-02-11T23:06:53.718Z,17.20
2023-02-11T23:10:02.031Z,17.90
2023-02-11T23:13:11.549Z,24.00
2023-02-11T23:16:22.772Z,18.70
2023-02-11T23:19:30.855Z,22.00
2023-02-11T23:22:38.737Z,20.50
2023-02-11T23:25:50.015Z,20.30
2023-02-11T23:28:59.086Z,20.90
2023-02-11T23:32:07.429Z,19.10
2023-02-11T23:35:22.068Z,21.80
2023-02-11T23:38:30.300Z,19.10
2023-02-11T23:41:38.061Z,21.90
2023-02-11T23:44:45.958Z,18.10
2023-02-11T23:47:53.759Z,20.00
2023-02-11T23:51:02.191Z,16.60
2023-02-11T23:54:11.936Z,19.90
2023-02-11T23:57:20.693Z,20.60
